Terminal Aerodrome Forecast
Issued by NWS

Home | Current Version | Previous Version | Text Only | Print | Product List | Glossary On
Versions: 1 2 3 4 5 6 7 8 9 10 11 12
000
FTUS45 KRIW 290500
TAFWRL
TAF
KWRL 290525Z 2906/3006 18012G18KT P6SM VCSH OVC100
     FM290900 VRB06KT P6SM VCSH BKN100
     FM291400 VRB06KT P6SM VCSH BKN080
     FM291900 VRB06KT P6SM VCTS SCT050CB BKN080
     FM300100 VRB06KT P6SM VCSH BKN080
     FM300400 VRB06KT P6SM SCT080 BKN150=

USA.gov is the U.S. government's official web portal to all federal, state and local government web resources and services.